TimePDT,TemperatureF,Dew PointF,Humidity,Sea Level PressureIn,VisibilityMPH,Wind Direction,Wind SpeedMPH,Gust SpeedMPH,PrecipitationIn,Events,Conditions,WindDirDegrees,DateUTC
12:00 AM,44.6,44.6,100,30.21,20.0,Calm,Calm,-,N/A,,Partly Cloudy,0,2013-10-16 07:00:00
1:00 AM,41.0,41.0,100,30.20,6.0,WSW,2.3,-,N/A,,Clear,250,2013-10-16 08:00:00
2:00 AM,46.4,46.4,100,30.21,3.0,West,3.5,-,N/A,,Mostly Cloudy,260,2013-10-16 09:00:00
2:11 AM,44.6,44.6,100,30.21,1.0,West,3.5,-,N/A,,Mostly Cloudy,260,2013-10-16 09:11:00
3:00 AM,46.4,46.4,100,30.21,3.0,WNW,5.8,-,N/A,,Partly Cloudy,290,2013-10-16 10:00:00
4:00 AM,44.6,44.6,100,30.19,6.0,West,5.8,-,N/A,,Partly Cloudy,270,2013-10-16 11:00:00
5:00 AM,47,46,95,30.19,7,West,4.6,,,,Mist,280,2013-10-16 12:00:00
5:00 AM,46.4,46.4,100,30.19,7.0,WNW,4.6,-,N/A,,Partly Cloudy,290,2013-10-16 12:00:00
6:00 AM,42.8,42.8,100,30.19,7.0,WSW,5.8,-,N/A,,Partly Cloudy,240,2013-10-16 13:00:00
7:00 AM,46.4,44.6,93,30.20,10.0,West,5.8,-,N/A,,Partly Cloudy,270,2013-10-16 14:00:00
8:00 AM,46.4,44.6,93,30.21,12.0,West,5.8,-,N/A,,Partly Cloudy,260,2013-10-16 15:00:00
9:00 AM,48.2,48.2,100,30.22,10.0,West,5.8,-,N/A,,Scattered Clouds,270,2013-10-16 16:00:00
9:06 AM,48.2,48.2,100,30.22,12.0,West,4.6,-,N/A,,Mostly Cloudy,260,2013-10-16 16:06:00
10:00 AM,51.8,48.2,88,30.22,12.0,West,5.8,-,N/A,,Mostly Cloudy,280,2013-10-16 17:00:00
10:32 AM,51.8,48.2,88,30.22,15.0,West,5.8,-,N/A,,Mostly Cloudy,270,2013-10-16 17:32:00
11:00 AM,53,49,81,30.22,15,West,5.8,,,,Scattered Clouds,270,2013-10-16 18:00:00
11:00 AM,53.6,48.2,82,30.22,15.0,West,5.8,-,N/A,,Mostly Cloudy,260,2013-10-16 18:00:00
12:00 PM,55.4,48.2,77,30.22,20.0,West,5.8,-,N/A,,Mostly Cloudy,260,2013-10-16 19:00:00
1:00 PM,57.2,50.0,77,30.20,30.0,Variable,2.3,-,N/A,,Partly Cloudy,0,2013-10-16 20:00:00
2:00 PM,57.2,50.0,77,30.20,30.0,East,4.6,-,N/A,,Scattered Clouds,80,2013-10-16 21:00:00
3:00 PM,59.0,50.0,72,30.20,30.0,NNE,5.8,-,N/A,,Partly Cloudy,30,2013-10-16 22:00:00
4:00 PM,59.0,51.8,77,30.18,30.0,ENE,5.8,-,N/A,,Partly Cloudy,60,2013-10-16 23:00:00
5:00 PM,58,50,67,30.17,28,ENE,3.5,,,,Clear,70,2013-10-17 00:00:00
5:00 PM,59.0,50.0,72,30.17,30.0,ENE,3.5,-,N/A,,Partly Cloudy,70,2013-10-17 00:00:00
6:00 PM,53.6,50.0,88,30.17,30.0,SSE,4.6,-,N/A,,Partly Cloudy,150,2013-10-17 01:00:00
7:00 PM,51.8,48.2,88,30.17,30.0,SSE,4.6,-,N/A,,Partly Cloudy,150,2013-10-17 02:00:00
8:00 PM,48.2,46.4,93,30.18,30.0,Calm,Calm,-,N/A,,Clear,0,2013-10-17 03:00:00
9:00 PM,44.6,44.6,100,30.20,30.0,Calm,Calm,-,N/A,,Clear,0,2013-10-17 04:00:00
9:41 PM,44.6,42.8,93,30.21,30.0,West,2.3,-,N/A,,Partly Cloudy,270,2013-10-17 04:41:00
10:00 PM,42.8,42.8,100,30.21,30.0,WSW,4.6,-,N/A,,Partly Cloudy,240,2013-10-17 05:00:00
11:00 PM,43,43,99,30.21,19,WSW,3.5,,,,Scattered Clouds,240,2013-10-17 06:00:00
11:00 PM,42.8,42.8,100,30.21,20.0,WSW,3.5,-,N/A,,Partly Cloudy,240,2013-10-17 06:00:00